Time;durP1;ratioP1;P1;durP2;ratioP2;P2;SDS_P1;SDS_P2;PMS_P1;PMS_P2;Temp;Humidity;BMP_temperature;BMP_pressure;BME280_temperature;BME280_humidity;BME280_pressure;Samples;Min_cycle;Max_cycle;Signal;HPM_P1;HPM_P2
2022/02/21 00:00:11;;;;;;;23.48;13.02;;;;;;;6.29;77.24;93439.84;5047050;28;20474;-41
2022/02/21 00:02:38;;;;;;;21.75;12.68;;;;;;;6.38;76.82;93436.72;5047406;28;20551;-41
2022/02/21 00:05:04;;;;;;;20.75;13.45;;;;;;;5.94;77.82;93413.44;5046927;28;20494;-41
2022/02/21 00:07:30;;;;;;;22.13;14.80;;;;;;;6.00;78.52;93441.50;5047321;28;20089;-41
2022/02/21 00:09:55;;;;;;;22.60;13.75;;;;;;;6.16;77.94;93434.31;5047233;28;20021;-40
2022/02/21 00:12:20;;;;;;;19.08;13.63;;;;;;;6.20;77.84;93440.22;5047275;28;20402;-40
2022/02/21 00:14:46;;;;;;;20.92;13.00;;;;;;;6.23;77.38;93448.16;5047160;28;20519;-41
2022/02/21 00:17:13;;;;;;;22.88;13.57;;;;;;;5.96;78.29;93439.06;5046929;28;20486;-41
2022/02/21 00:19:39;;;;;;;22.67;13.80;;;;;;;5.86;79.08;93448.19;5047160;28;20033;-41
2022/02/21 00:22:04;;;;;;;21.50;14.60;;;;;;;5.87;79.22;93449.63;5047128;28;20521;-40
2022/02/21 00:24:30;;;;;;;20.52;13.30;;;;;;;5.93;78.57;93444.84;5046733;28;20029;-41
2022/02/21 00:26:55;;;;;;;22.60;13.10;;;;;;;5.81;79.34;93435.25;5046597;28;20088;-41
2022/02/21 00:29:21;;;;;;;22.02;13.75;;;;;;;5.93;78.51;93445.56;5047072;28;20028;-41
2022/02/21 00:31:46;;;;;;;19.48;12.90;;;;;;;5.76;78.77;93431.31;5046787;28;20036;-41
2022/02/21 00:34:12;;;;;;;20.77;13.60;;;;;;;5.89;78.65;93433.44;5046984;28;20057;-41
2022/02/21 00:36:37;;;;;;;24.63;13.40;;;;;;;5.92;78.14;93430.41;5046702;28;20025;-41
2022/02/21 00:39:03;;;;;;;23.73;15.50;;;;;;;5.90;77.63;93423.97;5046696;28;20553;-41
2022/02/21 00:41:28;;;;;;;23.45;14.82;;;;;;;5.81;77.41;93421.56;5045065;27;20078;-41
2022/02/21 00:43:54;;;;;;;29.48;19.17;;;;;;;5.75;77.62;93420.91;5046782;28;20031;-40
2022/02/21 00:46:19;;;;;;;25.60;16.50;;;;;;;5.96;76.75;93427.34;5046553;28;20025;-41
2022/02/21 00:48:45;;;;;;;23.15;15.75;;;;;;;6.04;76.11;93428.97;5046550;28;20037;-41
2022/02/21 00:51:10;;;;;;;24.23;15.15;;;;;;;5.80;76.67;93420.09;5046867;28;20029;-41
2022/02/21 00:53:36;;;;;;;22.30;15.50;;;;;;;5.61;77.30;93422.81;5046497;28;20025;-40
2022/02/21 00:56:02;;;;;;;26.42;15.82;;;;;;;5.74;77.31;93422.88;5046512;28;20032;-40
2022/02/21 00:58:27;;;;;;;30.42;17.55;;;;;;;5.91;77.08;93414.50;5046662;28;20036;-41
2022/02/21 01:00:52;;;;;;;22.70;15.20;;;;;;;5.96;76.61;93417.13;5046692;28;20421;-41
2022/02/21 01:03:18;;;;;;;29.38;15.70;;;;;;;5.92;76.99;93411.22;5046641;28;20029;-41
2022/02/21 01:05:43;;;;;;;25.70;15.90;;;;;;;5.88;77.08;93408.03;5046514;28;20036;-41
2022/02/21 01:08:09;;;;;;;27.05;16.75;;;;;;;5.88;77.12;93393.59;5046539;28;20029;-41
2022/02/21 01:10:36;;;;;;;25.88;15.25;;;;;;;5.95;76.93;93395.75;5049400;28;20081;-41
2022/02/21 01:13:01;;;;;;;26.65;16.65;;;;;;;5.65;77.99;93389.66;5049948;28;20029;-41
2022/02/21 01:15:27;;;;;;;26.83;17.50;;;;;;;5.69;78.33;93398.31;5049840;28;20391;-40
2022/02/21 01:17:52;;;;;;;21.60;15.27;;;;;;;5.78;77.57;93401.41;5049856;28;20017;-41
2022/02/21 01:20:18;;;;;;;24.95;16.20;;;;;;;5.87;76.92;93397.59;5049859;28;20417;-41
2022/02/21 01:22:43;;;;;;;27.50;18.33;;;;;;;5.83;76.41;93397.88;5049478;28;20482;-41
2022/02/21 01:25:09;;;;;;;28.15;16.65;;;;;;;5.77;75.19;93389.00;5049332;28;20021;-41
2022/02/21 01:27:35;;;;;;;26.98;18.70;;;;;;;5.58;76.56;93390.25;5049343;28;20060;-40
2022/02/21 01:30:03;;;;;;;27.05;16.92;;;;;;;5.70;75.87;93386.09;5049388;28;20494;-41
2022/02/21 01:32:29;;;;;;;23.05;14.65;;;;;;;5.57;75.58;93386.75;5049498;28;20025;-41
2022/02/21 01:34:54;;;;;;;22.45;15.55;;;;;;;5.35;76.40;93385.03;5049618;28;20017;-41
2022/02/21 01:37:20;;;;;;;30.50;18.90;;;;;;;5.47;75.60;93377.44;5049288;28;20025;-41
2022/02/21 01:39:45;;;;;;;24.90;16.85;;;;;;;5.50;75.53;93370.91;5048667;27;20033;-40
2022/02/21 01:42:10;;;;;;;31.88;18.33;;;;;;;5.35;76.00;93376.09;5049250;28;20025;-41
2022/02/21 01:44:44;;;;;;;25.17;16.25;;;;;;;5.40;75.07;93372.53;5049085;28;20036;-40
2022/02/21 01:47:11;;;;;;;26.73;16.00;;;;;;;5.29;74.92;93376.16;5049447;28;20033;-40
2022/02/21 01:49:37;;;;;;;25.05;15.32;;;;;;;5.00;74.84;93381.75;5049037;28;20029;-40
2022/02/21 01:52:04;;;;;;;21.13;13.88;;;;;;;4.68;75.64;93386.31;5049422;28;20036;-41
2022/02/21 01:54:31;;;;;;;20.08;14.15;;;;;;;4.30;77.00;93386.16;5049066;28;20021;-41
2022/02/21 01:56:57;;;;;;;28.40;17.38;;;;;;;3.98;78.59;93378.94;5048956;28;20129;-41
2022/02/21 01:59:24;;;;;;;27.80;16.70;;;;;;;3.88;80.04;93377.78;5048957;28;20111;-41
2022/02/21 02:01:50;;;;;;;23.10;15.00;;;;;;;4.05;79.88;93370.94;5048893;28;20029;-41
2022/02/21 02:04:15;;;;;;;22.80;15.25;;;;;;;4.22;78.78;93371.53;5048782;28;20032;-40
2022/02/21 02:06:41;;;;;;;20.65;13.43;;;;;;;4.27;78.05;93365.28;5049215;28;20058;-41
2022/02/21 02:09:07;;;;;;;21.38;13.38;;;;;;;4.16;77.01;93348.97;5049094;28;20032;-41
2022/02/21 02:11:34;;;;;;;22.23;13.70;;;;;;;4.06;76.81;93319.78;5049075;28;20028;-41
2022/02/21 02:13:59;;;;;;;21.90;14.57;;;;;;;4.05;76.68;93319.03;5049036;28;20033;-41
2022/02/21 02:16:25;;;;;;;39.80;20.27;;;;;;;4.24;76.95;93341.72;5048640;28;20418;-41
2022/02/21 02:18:50;;;;;;;32.80;16.42;;;;;;;4.21;77.33;93350.94;5048607;28;20033;-41
2022/02/21 02:21:26;;;;;;;25.60;16.52;;;;;;;4.01;76.98;93345.88;5048171;28;20021;-41
2022/02/21 02:23:52;;;;;;;27.65;17.02;;;;;;;3.81;77.89;93340.84;5048467;28;20112;-41
2022/02/21 02:26:19;;;;;;;24.05;14.05;;;;;;;3.62;77.26;93340.69;5048363;28;20549;-41
2022/02/21 02:28:50;;;;;;;26.90;15.82;;;;;;;3.52;78.15;93336.06;5047475;28;20025;-41
2022/02/21 02:31:16;;;;;;;20.65;13.35;;;;;;;3.70;77.35;93335.44;5048689;28;20029;-41
2022/02/21 02:33:41;;;;;;;23.08;14.75;;;;;;;3.78;76.46;93341.84;5048715;28;20103;-41
2022/02/21 02:36:08;;;;;;;21.48;13.27;;;;;;;3.51;77.12;93334.59;5048259;28;20502;-41
2022/02/21 02:38:37;;;;;;;27.13;14.88;;;;;;;3.51;77.65;93342.78;5048661;28;20074;-41
2022/02/21 02:41:08;;;;;;;21.48;14.15;;;;;;;3.48;77.50;93339.06;5048299;27;20033;-40
2022/02/21 02:43:35;;;;;;;35.28;19.95;;;;;;;3.65;77.28;93338.94;5048603;28;20017;-40
2022/02/21 02:46:01;;;;;;;32.40;17.63;;;;;;;3.78;77.11;93325.47;5048530;28;20058;-41
2022/02/21 02:48:26;;;;;;;28.65;16.27;;;;;;;3.58;77.05;93334.03;5048454;28;20021;-41
2022/02/21 02:50:52;;;;;;;22.40;13.50;;;;;;;3.71;76.28;93332.22;5048400;28;20029;-41
2022/02/21 02:53:17;;;;;;;49.10;26.17;;;;;;;3.61;76.10;93336.50;5048059;28;20505;-41
2022/02/21 02:55:42;;;;;;;30.73;17.75;;;;;;;3.64;76.37;93342.91;5047967;28;20053;-41
2022/02/21 02:58:08;;;;;;;56.90;32.45;;;;;;;3.65;76.59;93334.25;5047996;28;20025;-41
2022/02/21 03:00:33;;;;;;;49.80;29.23;;;;;;;3.76;76.57;93333.41;5048084;28;20077;-41
2022/02/21 03:02:59;;;;;;;66.53;34.28;;;;;;;3.78;76.70;93328.94;5046521;28;20117;-41
2022/02/21 03:05:24;;;;;;;74.15;40.45;;;;;;;3.82;76.43;93334.84;5030832;28;20026;-42
2022/02/21 03:07:50;;;;;;;56.58;31.70;;;;;;;3.86;75.82;93329.13;5028223;28;20422;-41
2022/02/21 03:10:15;;;;;;;49.28;30.00;;;;;;;3.40;76.03;93302.63;5028019;28;20429;-41
2022/02/21 03:12:41;;;;;;;44.75;26.58;;;;;;;3.45;75.86;93328.41;5028191;28;20025;-41
2022/02/21 03:15:07;;;;;;;35.47;20.40;;;;;;;3.46;75.48;93329.91;5027825;28;20017;-41
2022/02/21 03:17:32;;;;;;;47.70;28.23;;;;;;;3.33;75.94;93330.47;5028129;28;20025;-41
2022/02/21 03:19:57;;;;;;;42.83;26.35;;;;;;;3.28;76.41;93331.25;5028042;28;20506;-41
2022/02/21 03:22:23;;;;;;;42.22;24.73;;;;;;;3.26;76.58;93332.97;5028131;28;20045;-41
2022/02/21 03:24:48;;;;;;;39.15;22.65;;;;;;;3.15;76.49;93330.31;5027877;28;20030;-41
2022/02/21 03:27:14;;;;;;;36.83;22.10;;;;;;;3.23;76.69;93332.00;5047569;28;20445;-41
2022/02/21 03:29:39;;;;;;;36.83;22.33;;;;;;;3.40;76.51;93329.91;5047780;28;20028;-41
2022/02/21 03:32:05;;;;;;;26.90;16.90;;;;;;;3.60;76.01;93323.34;5046812;28;20021;-41
2022/02/21 03:34:31;;;;;;;29.85;18.15;;;;;;;3.68;76.02;93311.38;5047844;27;20028;-41
2022/02/21 03:36:56;;;;;;;33.10;19.45;;;;;;;3.63;76.32;93312.16;5047702;28;20013;-41
2022/02/21 03:39:21;;;;;;;37.88;22.65;;;;;;;3.60;76.63;93306.97;5047707;28;20422;-41
2022/02/21 03:41:47;;;;;;;57.47;30.88;;;;;;;3.59;76.53;93306.25;5047293;27;20028;-42
2022/02/21 03:44:13;;;;;;;59.35;33.80;;;;;;;3.73;76.12;93312.59;5047615;28;20383;-41
2022/02/21 03:46:41;;;;;;;45.15;26.98;;;;;;;3.65;76.01;93317.88;5047570;28;20101;-41
2022/02/21 03:49:07;;;;;;;43.70;26.00;;;;;;;3.56;75.28;93320.16;5047520;28;20044;-42
2022/02/21 03:51:32;;;;;;;43.35;23.67;;;;;;;3.58;74.98;93315.66;5047293;28;20033;-41
2022/02/21 03:53:58;;;;;;;61.25;33.63;;;;;;;3.59;74.69;93316.41;5047088;28;20041;-41
2022/02/21 03:56:23;;;;;;;55.78;30.58;;;;;;;3.50;75.56;93311.25;5047227;28;20028;-41
2022/02/21 03:58:48;;;;;;;40.95;22.88;;;;;;;3.51;76.51;93302.56;5047069;28;20028;-41
2022/02/21 04:01:14;;;;;;;73.68;28.27;;;;;;;3.46;77.12;93308.81;5047161;28;20036;-42
2022/02/21 04:03:40;;;;;;;47.25;27.05;;;;;;;3.21;76.51;93290.84;5047099;28;20074;-42
2022/02/21 04:06:05;;;;;;;49.00;25.70;;;;;;;2.89;77.67;93315.06;5047243;28;20032;-41
2022/02/21 04:08:31;;;;;;;51.33;29.30;;;;;;;3.05;76.79;93305.34;5047325;28;20025;-41
2022/02/21 04:10:58;;;;;;;58.92;31.98;;;;;;;3.08;76.22;93305.06;5047255;28;20022;-41
2022/02/21 04:13:23;;;;;;;46.65;27.52;;;;;;;2.98;76.25;93308.59;5047267;28;20029;-41
2022/02/21 04:15:49;;;;;;;66.95;32.55;;;;;;;2.56;77.20;93309.72;5046928;28;20021;-41
2022/02/21 04:18:14;;;;;;;55.70;26.13;;;;;;;2.46;78.47;93310.50;5046928;28;20025;-41
2022/02/21 04:20:40;;;;;;;46.72;24.00;;;;;;;2.66;77.28;93312.94;5047238;28;20018;-41
2022/02/21 04:23:05;;;;;;;49.30;25.80;;;;;;;2.77;76.96;93299.97;5046816;28;20041;-41
2022/02/21 04:25:31;;;;;;;32.67;19.73;;;;;;;2.73;77.25;93307.69;5047012;28;20508;-41
2022/02/21 04:27:56;;;;;;;33.42;19.42;;;;;;;2.46;77.91;93300.34;5046664;28;20453;-41
2022/02/21 04:30:24;;;;;;;30.98;16.65;;;;;;;2.46;77.31;93294.16;5047107;28;20024;-41
2022/02/21 04:32:50;;;;;;;26.88;13.32;;;;;;;2.46;76.56;93288.72;5046738;28;20033;-41
2022/02/21 04:35:17;;;;;;;21.10;12.93;;;;;;;2.50;76.44;93289.19;5046722;28;20021;-40
2022/02/21 04:37:43;;;;;;;20.25;12.00;;;;;;;2.57;75.96;93283.97;5046642;28;20485;-41
2022/02/21 04:40:10;;;;;;;32.63;18.27;;;;;;;2.17;77.35;93288.03;5046306;27;20501;-41
2022/02/21 04:42:36;;;;;;;27.48;17.02;;;;;;;2.13;78.13;93286.81;5046942;28;20039;-41
2022/02/21 04:45:03;;;;;;;39.83;21.30;;;;;;;2.22;77.83;93292.75;5050055;28;20025;-41
2022/02/21 04:47:29;;;;;;;70.93;38.10;;;;;;;2.36;76.82;93277.34;5050399;28;20453;-40
2022/02/21 04:49:54;;;;;;;68.85;36.30;;;;;;;2.43;77.16;93281.53;5050306;28;20029;-41
2022/02/21 04:52:20;;;;;;;49.65;25.95;;;;;;;2.39;77.65;93279.06;5050288;28;20485;-41
2022/02/21 04:54:45;;;;;;;47.33;26.27;;;;;;;2.41;77.99;93271.13;5050251;28;20444;-41
2022/02/21 04:57:11;;;;;;;44.67;24.98;;;;;;;2.44;77.67;93269.41;5049917;28;20538;-41
2022/02/21 04:59:37;;;;;;;42.80;23.60;;;;;;;2.62;76.84;93268.84;5049852;28;20101;-40
2022/02/21 05:02:03;;;;;;;41.40;23.42;;;;;;;2.51;76.37;93231.47;5049782;28;20078;-41
2022/02/21 05:04:28;;;;;;;48.92;28.95;;;;;;;2.56;76.48;93265.38;5050014;28;20158;-40
2022/02/21 05:06:54;;;;;;;52.13;30.95;;;;;;;2.51;76.09;93261.47;5050029;28;20108;-40
2022/02/21 05:09:20;;;;;;;55.83;31.52;;;;;;;2.36;77.07;93263.72;5050012;28;20025;-41
2022/02/21 05:11:46;;;;;;;43.17;25.48;;;;;;;2.38;76.51;93274.88;5049671;28;20409;-41
2022/02/21 05:14:11;;;;;;;48.63;28.98;;;;;;;2.58;76.48;93271.09;5049922;28;20028;-41
2022/02/21 05:16:37;;;;;;;69.18;36.85;;;;;;;2.64;76.28;93261.63;5049878;28;20406;-41
2022/02/21 05:19:02;;;;;;;70.40;40.60;;;;;;;2.66;76.27;93256.44;5049508;28;20408;-41
2022/02/21 05:21:29;;;;;;;61.55;36.85;;;;;;;2.55;78.03;93259.22;5049035;28;20028;-41
2022/02/21 05:23:55;;;;;;;33.72;22.85;;;;;;;2.24;78.39;93251.38;5049238;28;20025;-41
2022/02/21 05:26:20;;;;;;;24.05;16.10;;;;;;;2.43;77.83;93267.91;5049471;28;20074;-41
2022/02/21 05:28:46;;;;;;;21.20;16.20;;;;;;;2.60;78.01;93261.16;5049750;28;20511;-40
2022/02/21 05:31:11;;;;;;;24.30;16.38;;;;;;;2.68;77.54;93253.94;5049341;28;20474;-41
2022/02/21 05:33:36;;;;;;;19.65;12.88;;;;;;;2.90;77.13;93259.28;5049360;28;20021;-41
2022/02/21 05:36:02;;;;;;;18.58;11.90;;;;;;;2.97;76.79;93260.72;5049258;28;20013;-41
2022/02/21 05:38:28;;;;;;;18.52;12.40;;;;;;;2.98;76.45;93252.06;5049539;28;20056;-41
2022/02/21 05:40:53;;;;;;;46.67;24.92;;;;;;;3.08;77.38;93258.69;5048940;27;20613;-41
2022/02/21 05:43:19;;;;;;;26.77;16.88;;;;;;;3.16;76.76;93258.91;5047880;28;20040;-42
2022/02/21 05:45:44;;;;;;;27.80;18.42;;;;;;;3.13;76.65;93264.59;5047811;28;20025;-41
2022/02/21 05:48:09;;;;;;;29.63;19.02;;;;;;;3.30;75.05;93255.06;5049439;28;20066;-41
2022/02/21 05:50:35;;;;;;;39.17;24.75;;;;;;;3.39;75.08;93245.84;5049191;28;20029;-41
2022/02/21 05:53:00;;;;;;;62.40;35.75;;;;;;;3.45;74.55;93241.06;5049017;28;20028;-40
2022/02/21 05:55:26;;;;;;;59.25;32.53;;;;;;;3.47;74.93;93233.13;5048176;28;20017;-41
2022/02/21 05:57:56;;;;;;;104.13;54.03;;;;;;;3.43;75.33;93224.47;5049273;28;20021;-40
2022/02/21 06:00:22;;;;;;;59.55;32.72;;;;;;;3.53;75.63;93223.63;5049224;28;20021;-40
2022/02/21 06:02:47;;;;;;;26.25;15.63;;;;;;;3.62;75.69;93225.31;5048888;27;20021;-41
2022/02/21 06:05:12;;;;;;;34.60;21.70;;;;;;;3.65;75.74;93221.56;5048805;28;20034;-41
2022/02/21 06:07:38;;;;;;;36.80;21.67;;;;;;;3.75;75.73;93226.19;5049018;28;20032;-41
2022/02/21 06:10:04;;;;;;;46.72;19.98;;;;;;;3.81;76.00;93232.34;5049045;28;20521;-40
2022/02/21 06:12:29;;;;;;;101.45;53.47;;;;;;;3.84;75.77;93230.56;5049008;28;20021;-40
2022/02/21 06:14:55;;;;;;;108.30;43.72;;;;;;;3.78;76.45;93218.97;5048748;28;20081;-41
2022/02/21 06:17:20;;;;;;;76.95;38.10;;;;;;;3.87;77.08;93217.91;5048642;28;20021;-41
2022/02/21 06:19:45;;;;;;;88.75;34.00;;;;;;;4.03;76.57;93209.53;5048877;28;20021;-40
2022/02/21 06:22:11;;;;;;;74.03;31.50;;;;;;;4.20;77.46;93215.56;5048612;28;20490;-41
2022/02/21 06:24:36;;;;;;;117.97;27.88;;;;;;;4.33;78.01;93214.94;5048442;28;20029;-41
2022/02/21 06:27:03;;;;;;;171.85;70.85;;;;;;;4.41;77.14;93205.66;5048375;28;20045;-41
2022/02/21 06:29:29;;;;;;;109.90;44.88;;;;;;;4.32;77.68;93203.25;5048430;28;20108;-41
2022/02/21 06:31:55;;;;;;;97.75;41.03;;;;;;;4.21;78.08;93205.38;5048759;28;20029;-41
2022/02/21 06:34:20;;;;;;;86.22;37.33;;;;;;;4.02;79.58;93199.88;5048333;28;20050;-41
2022/02/21 06:36:46;;;;;;;73.50;26.00;;;;;;;3.80;81.11;93192.63;5048342;28;20113;-41
2022/02/21 06:39:11;;;;;;;78.30;19.13;;;;;;;3.88;82.08;93187.34;5048333;28;20017;-41
2022/02/21 06:41:36;;;;;;;88.65;19.00;;;;;;;4.23;81.78;93195.41;5047930;27;20021;-41
2022/02/21 06:44:02;;;;;;;50.30;17.80;;;;;;;4.52;81.38;93189.13;5048119;28;20024;-42
2022/02/21 06:46:27;;;;;;;56.05;22.52;;;;;;;4.80;80.78;93190.75;5048602;28;20100;-41
2022/02/21 06:48:53;;;;;;;53.45;21.38;;;;;;;5.09;78.89;93195.31;5048192;28;20021;-42
2022/02/21 06:51:19;;;;;;;42.00;16.30;;;;;;;5.11;77.33;93170.91;5048526;28;20036;-42
2022/02/21 06:53:44;;;;;;;44.65;16.67;;;;;;;5.50;76.97;93190.19;5048201;28;20459;-42
2022/02/21 06:56:10;;;;;;;54.53;16.33;;;;;;;5.76;74.88;93187.53;5048073;28;20037;-42
2022/02/21 06:58:36;;;;;;;45.10;21.35;;;;;;;6.21;73.72;93190.25;5048458;28;20080;-42
2022/02/21 07:01:05;;;;;;;55.53;23.40;;;;;;;6.54;72.38;93192.34;5047903;28;20046;-43
2022/02/21 07:03:30;;;;;;;52.63;22.00;;;;;;;6.94;70.46;93195.78;5048313;28;20032;-42
2022/02/21 07:05:56;;;;;;;31.23;15.93;;;;;;;7.06;68.85;93175.03;5048108;28;20033;-42
2022/02/21 07:08:21;;;;;;;34.70;20.30;;;;;;;7.28;68.76;93182.03;5047847;28;20081;-42
2022/02/21 07:10:47;;;;;;;65.47;21.42;;;;;;;7.36;68.62;93189.09;5047755;27;20029;-42
2022/02/21 07:13:12;;;;;;;40.70;22.60;;;;;;;7.43;68.67;93182.94;5048097;28;20028;-42
2022/02/21 07:15:38;;;;;;;45.55;24.67;;;;;;;7.45;68.94;93169.41;5048107;28;20074;-42
2022/02/21 07:18:03;;;;;;;66.70;27.65;;;;;;;7.23;68.79;93174.69;5047767;28;20052;-42
2022/02/21 07:20:29;;;;;;;39.53;17.15;;;;;;;7.06;68.91;93171.59;5047961;28;20123;-42
2022/02/21 07:22:54;;;;;;;36.58;18.20;;;;;;;7.08;70.03;93174.53;5048133;28;20040;-41
2022/02/21 07:25:20;;;;;;;37.33;16.95;;;;;;;7.13;70.30;93174.41;5047870;28;20032;-41
2022/02/21 07:27:51;;;;;;;31.33;12.77;;;;;;;7.06;69.72;93175.03;5047378;28;20045;-42
2022/02/21 07:30:18;;;;;;;62.95;12.10;;;;;;;6.77;70.51;93163.22;5047787;28;20024;-42
2022/02/21 07:32:44;;;;;;;26.05;10.07;;;;;;;7.17;70.05;93171.34;5047433;28;20111;-42
2022/02/21 07:35:10;;;;;;;29.63;11.60;;;;;;;7.63;70.01;93163.00;5047394;28;20056;-41
2022/02/21 07:37:36;;;;;;;37.80;11.80;;;;;;;7.88;68.30;93166.13;5047708;28;20059;-42
2022/02/21 07:40:03;;;;;;;33.55;11.73;;;;;;;8.34;67.43;93156.94;5046504;27;20100;-42
2022/02/21 07:42:28;;;;;;;26.92;12.27;;;;;;;9.21;64.39;93148.69;5047136;28;20013;-42
2022/02/21 07:44:53;;;;;;;24.95;13.43;;;;;;;10.78;60.54;93140.94;5044069;28;20030;-42
2022/02/21 07:47:20;;;;;;;27.65;15.10;;;;;;;10.63;57.79;93141.00;5036706;28;20049;-41
2022/02/21 07:49:46;;;;;;;20.98;15.20;;;;;;;11.07;58.08;93133.81;5038126;28;20021;-42
2022/02/21 07:52:12;;;;;;;23.92;15.63;;;;;;;12.01;55.36;93123.84;5036457;28;20029;-42
2022/02/21 07:54:37;;;;;;;15.80;12.55;;;;;;;12.65;54.71;93120.81;5037039;28;20017;-42
2022/02/21 07:57:06;;;;;;;19.10;14.13;;;;;;;13.83;50.42;93111.38;5037666;28;20108;-42
2022/02/21 07:59:32;;;;;;;21.35;15.15;;;;;;;14.97;48.67;93114.41;5046083;28;20054;-42
2022/02/21 08:01:57;;;;;;;24.20;14.45;;;;;;;16.04;45.62;93098.97;5047424;28;20021;-42
2022/02/21 08:04:22;;;;;;;27.50;20.35;;;;;;;17.36;43.38;93090.31;5047334;28;20089;-41
2022/02/21 08:06:48;;;;;;;33.00;20.65;;;;;;;18.25;40.63;93090.22;5047082;28;20025;-42
2022/02/21 08:09:13;;;;;;;24.38;18.88;;;;;;;19.11;37.93;93072.91;5047124;28;20025;-42
2022/02/21 08:11:39;;;;;;;21.73;16.38;;;;;;;19.50;36.93;93073.75;5047300;28;20502;-42
2022/02/21 08:14:05;;;;;;;28.63;14.82;;;;;;;20.21;35.39;93061.47;5047292;28;20029;-43
2022/02/21 08:16:31;;;;;;;23.85;14.68;;;;;;;20.49;34.47;93055.91;5047267;28;20033;-42
2022/02/21 08:18:56;;;;;;;12.60;10.05;;;;;;;20.82;33.74;93042.13;5049323;28;20033;-42
2022/02/21 08:21:22;;;;;;;11.55;9.25;;;;;;;21.53;32.35;93041.41;5050559;28;20029;-41
2022/02/21 08:23:47;;;;;;;13.55;9.82;;;;;;;21.77;32.69;93039.00;5050445;28;20029;-41
2022/02/21 08:26:13;;;;;;;15.23;11.05;;;;;;;22.40;31.34;93037.69;5050355;28;20025;-41
2022/02/21 08:28:38;;;;;;;11.35;9.70;;;;;;;23.01;29.74;93026.94;5050798;28;20489;-41
2022/02/21 08:31:04;;;;;;;10.70;9.25;;;;;;;23.44;29.61;93029.41;5050316;28;20505;-41
2022/02/21 08:33:29;;;;;;;16.15;12.00;;;;;;;23.36;29.47;93029.09;5050305;28;20024;-41
2022/02/21 08:35:54;;;;;;;18.20;14.13;;;;;;;23.93;28.92;93035.56;5050568;28;20029;-41
2022/02/21 08:38:20;;;;;;;20.40;14.10;;;;;;;24.60;28.94;93021.81;5050461;28;20025;-41
2022/02/21 08:40:46;;;;;;;15.60;12.45;;;;;;;24.96;28.25;93021.66;5050178;28;20025;-41
2022/02/21 08:43:12;;;;;;;15.25;11.98;;;;;;;25.20;27.67;93014.00;5042072;28;20502;-41
2022/02/21 08:45:38;;;;;;;12.90;10.60;;;;;;;25.66;26.73;93015.53;5028082;28;20030;-41
2022/02/21 08:48:03;;;;;;;11.43;9.60;;;;;;;26.43;25.88;93010.06;5027973;28;20472;-42
2022/02/21 08:50:29;;;;;;;11.75;9.25;;;;;;;27.16;25.27;93006.41;5026107;28;20112;-42
2022/02/21 08:52:54;;;;;;;6.47;5.50;;;;;;;26.72;24.91;93003.81;5029540;28;20696;-41
2022/02/21 08:55:20;;;;;;;10.20;3.83;;;;;;;26.75;24.16;92999.66;5047313;28;20413;-42
2022/02/21 08:57:46;;;;;;;3.38;2.67;;;;;;;27.10;23.72;92992.78;5032734;28;20026;-42
2022/02/21 09:00:13;;;;;;;4.90;2.70;;;;;;;26.87;23.52;92987.94;5040664;28;20112;-42
2022/02/21 09:02:38;;;;;;;3.78;2.28;;;;;;;25.70;24.32;92989.47;5032413;28;20036;-41
2022/02/21 09:05:04;;;;;;;5.00;2.30;;;;;;;25.15;26.01;92984.16;5047729;28;20017;-41
2022/02/21 09:07:30;;;;;;;3.30;1.90;;;;;;;25.25;25.33;92981.69;5047161;28;20609;-42
2022/02/21 09:09:56;;;;;;;3.42;1.73;;;;;;;24.16;26.10;92991.28;5047092;28;20116;-41
2022/02/21 09:12:21;;;;;;;2.78;1.88;;;;;;;23.46;26.61;92973.13;5047494;28;20025;-42
2022/02/21 09:14:50;;;;;;;15.02;7.00;;;;;;;23.01;27.18;92973.44;5047264;28;20024;-41
2022/02/21 09:17:16;;;;;;;3.17;2.50;;;;;;;23.33;28.21;92971.22;5047664;28;20046;-42
2022/02/21 09:19:41;;;;;;;5.00;2.47;;;;;;;24.04;26.73;92944.34;5047313;28;20459;-41
2022/02/21 09:22:07;;;;;;;2.53;2.03;;;;;;;24.53;24.93;92949.63;5047243;28;20112;-41
2022/02/21 09:24:32;;;;;;;2.83;2.58;;;;;;;23.55;26.27;92957.25;5031480;28;20074;-41
2022/02/21 09:26:58;;;;;;;2.90;2.33;;;;;;;23.87;26.70;92964.84;5027102;28;20049;-41
2022/02/21 09:29:24;;;;;;;2.03;1.70;;;;;;;24.45;25.60;92949.31;5042481;28;20040;-42
2022/02/21 09:31:50;;;;;;;6.63;2.13;;;;;;;25.11;24.99;92944.50;5046546;28;20025;-42
2022/02/21 09:34:16;;;;;;;2.53;2.03;;;;;;;25.33;24.66;92942.38;5046939;28;20072;-41
2022/02/21 09:36:42;;;;;;;3.20;1.92;;;;;;;25.72;23.89;92935.81;5047066;28;20065;-42
2022/02/21 09:39:07;;;;;;;2.70;2.20;;;;;;;25.45;24.41;92943.50;5046947;28;20047;-42
2022/02/21 09:41:33;;;;;;;2.85;2.00;;;;;;;25.32;23.63;92941.66;5066628;27;20490;-41
2022/02/21 09:43:58;;;;;;;3.75;1.70;;;;;;;25.32;23.79;92930.34;5046812;28;20021;-42
2022/02/21 09:46:29;;;;;;;3.83;2.83;;;;;;;24.59;25.00;92927.25;5047094;28;20132;-42
2022/02/21 09:48:59;;;;;;;3.53;2.17;;;;;;;24.01;25.06;92925.16;5045167;28;20029;-41
2022/02/21 09:51:25;;;;;;;3.45;1.75;;;;;;;23.97;25.23;92920.09;5047166;28;20029;-42
2022/02/21 09:53:51;;;;;;;1.52;1.42;;;;;;;23.88;25.13;92914.81;5046774;28;20426;-42
2022/02/21 09:56:16;;;;;;;2.83;1.58;;;;;;;23.71;25.34;92913.50;5046164;28;20438;-41
2022/02/21 09:58:42;;;;;;;2.80;1.77;;;;;;;24.09;25.05;92903.63;5046373;28;20490;-41
2022/02/21 10:01:08;;;;;;;2.15;1.70;;;;;;;24.38;25.13;92905.34;5042959;28;20586;-41
2022/02/21 10:03:36;;;;;;;2.22;1.98;;;;;;;23.82;25.70;92906.16;5046738;28;20047;-42
2022/02/21 10:06:27;;;;;;;2.17;1.95;;;;;;;24.32;25.77;92893.13;5046533;28;20026;-41
2022/02/21 10:09:08;;;;;;;2.20;1.98;;;;;;;23.68;25.60;92897.16;5046701;28;20037;-41
2022/02/21 10:11:36;;;;;;;3.00;1.80;;;;;;;24.19;26.48;92880.69;5035228;28;20049;-41
2022/02/21 10:14:05;;;;;;;4.30;2.35;;;;;;;24.43;25.45;92880.81;5036141;28;20039;-41
2022/02/21 10:16:52;;;;;;;3.90;1.63;;;;;;;24.96;25.10;92869.16;5034421;28;20025;-42
2022/02/21 10:19:25;;;;;;;2.60;1.27;;;;;;;25.38;22.81;92865.53;5026581;28;20037;-41
2022/02/21 10:22:08;;;;;;;5.88;2.10;;;;;;;25.12;24.28;92852.72;5026707;28;20425;-41
2022/02/21 10:24:48;;;;;;;3.10;1.90;;;;;;;25.12;23.85;92852.72;5026569;28;20047;-41
2022/02/21 10:27:24;;;;;;;5.28;2.17;;;;;;;24.84;24.98;92849.72;5026163;28;20071;-42
2022/02/21 10:29:59;;;;;;;2.58;1.98;;;;;;;25.36;24.34;92844.97;5028503;28;20041;-41
2022/02/21 10:32:32;;;;;;;2.22;1.60;;;;;;;24.37;25.17;92832.63;5028630;28;20104;-42
2022/02/21 10:35:18;;;;;;;4.93;2.10;;;;;;;23.89;26.34;92834.50;5028601;28;20025;-42
2022/02/21 10:37:49;;;;;;;2.00;1.80;;;;;;;24.42;24.02;92829.31;5028511;28;20030;-41
2022/02/21 10:40:20;;;;;;;3.42;2.13;;;;;;;24.87;24.41;92825.81;5032896;27;20441;-42
2022/02/21 10:43:15;;;;;;;2.78;2.15;;;;;;;25.19;25.14;92820.44;5047994;28;20387;-41
2022/02/21 10:45:42;;;;;;;2.80;2.28;;;;;;;25.48;24.34;92806.50;5048241;28;20558;-42
2022/02/21 10:48:09;;;;;;;2.70;1.85;;;;;;;25.15;23.70;92804.09;5048208;28;20521;-41
2022/02/21 10:50:54;;;;;;;2.70;1.80;;;;;;;25.72;23.06;92800.81;5048191;28;20035;-41
2022/02/21 10:53:23;;;;;;;3.03;2.63;;;;;;;25.62;23.62;92785.69;5048170;28;20394;-41
2022/02/21 10:55:52;;;;;;;;;;;;;;;25.03;23.89;92792.44;5048725;27;20052;-42
2022/02/21 10:58:18;;;;;;;2.78;2.30;;;;;;;24.42;25.11;92789.06;5048185;28;19913;-42
2022/02/21 11:00:50;;;;;;;3.78;2.15;;;;;;;24.00;25.61;92779.88;5046804;28;20044;-41
2022/02/21 11:03:17;;;;;;;4.28;2.53;;;;;;;24.67;26.14;92780.72;5047982;28;20530;-41
2022/02/21 11:05:45;;;;;;;3.40;2.25;;;;;;;25.28;23.31;92769.16;5047837;28;20032;-41
2022/02/21 11:08:10;;;;;;;2.65;1.95;;;;;;;25.22;23.66;92760.50;5048199;28;20025;-41
2022/02/21 11:10:35;;;;;;;3.47;1.80;;;;;;;24.83;23.38;92761.47;5047951;28;20386;-41
2022/02/21 11:13:02;;;;;;;2.75;1.88;;;;;;;24.86;24.65;92750.97;5046675;28;20025;-41
2022/02/21 11:15:28;;;;;;;3.20;2.10;;;;;;;25.36;23.15;92754.56;5046951;28;20416;-42
2022/02/21 11:17:53;;;;;;;2.40;2.10;;;;;;;24.85;25.05;92752.34;5047747;28;20028;-41
2022/02/21 11:20:19;;;;;;;2.45;2.10;;;;;;;25.89;23.14;92737.63;5046840;28;20056;-42
2022/02/21 11:22:45;;;;;;;2.88;2.50;;;;;;;26.65;23.03;92730.34;5047967;28;20410;-42